createdAt,value
2023-01-04T00:01:33.583Z,90.37
2023-01-04T00:04:01.568Z,90.39
2023-01-04T00:06:29.393Z,90.48
2023-01-04T00:08:57.241Z,90.41
2023-01-04T00:11:24.902Z,90.41
2023-01-04T00:13:56.346Z,90.49
2023-01-04T00:16:26.994Z,90.61
2023-01-04T00:18:55.601Z,90.67
2023-01-04T00:21:27.397Z,90.68
2023-01-04T00:23:58.528Z,90.90
2023-01-04T00:26:33.066Z,90.99
2023-01-04T00:29:05.297Z,91.04
2023-01-04T00:31:34.337Z,91.03
2023-01-04T00:34:04.732Z,91.05
2023-01-04T00:36:33.475Z,91.05
2023-01-04T00:39:09.343Z,91.02
2023-01-04T00:42:02.309Z,91.04
2023-01-04T00:44:16.290Z,91.06
2023-01-04T00:46:44.657Z,91.29
2023-01-04T00:49:12.641Z,91.44
2023-01-04T00:51:42.250Z,91.61
2023-01-04T00:54:15.780Z,91.54
2023-01-04T00:56:44.170Z,91.60
2023-01-04T00:59:17.804Z,91.59
2023-01-04T01:01:46.366Z,91.69
2023-01-04T01:04:17.794Z,91.76
2023-01-04T01:06:46.081Z,91.79
2023-01-04T01:09:14.747Z,91.76
2023-01-04T01:11:42.959Z,91.60
2023-01-04T01:14:18.249Z,91.56
2023-01-04T01:17:02.454Z,91.41
2023-01-04T01:19:16.662Z,91.43
2023-01-04T01:21:44.726Z,91.45
2023-01-04T01:24:16.678Z,91.60
2023-01-04T01:26:44.494Z,91.58
2023-01-04T01:29:12.258Z,91.68
2023-01-04T01:31:41.165Z,91.68
2023-01-04T01:34:12.122Z,91.62
2023-01-04T01:36:39.862Z,91.64
2023-01-04T01:39:07.922Z,91.52
2023-01-04T01:41:36.024Z,91.43
2023-01-04T01:44:44.699Z,91.40
2023-01-04T01:47:20.107Z,91.39
2023-01-04T01:49:51.696Z,91.65
2023-01-04T01:52:24.639Z,91.74
2023-01-04T01:54:59.735Z,91.88
2023-01-04T01:57:31.941Z,91.97
2023-01-04T02:00:05.237Z,92.06
2023-01-04T02:02:35.540Z,92.15
2023-01-04T02:05:03.767Z,92.27
2023-01-04T02:07:31.923Z,92.47
2023-01-04T02:10:00.201Z,92.52
2023-01-04T02:12:28.164Z,92.63
2023-01-04T02:14:56.229Z,92.72
2023-01-04T02:17:47.056Z,92.71
2023-01-04T02:20:38.185Z,92.75
2023-01-04T02:23:28.880Z,92.75
2023-01-04T02:26:05.172Z,92.80
2023-01-04T02:28:43.500Z,92.84
2023-01-04T02:31:40.368Z,92.79
2023-01-04T02:34:45.804Z,92.79
2023-01-04T02:37:33.303Z,92.84
2023-01-04T02:40:22.832Z,92.70
2023-01-04T02:43:20.190Z,92.75
2023-01-04T02:45:56.116Z,92.80
2023-01-04T02:48:42.468Z,92.77
2023-01-04T02:51:35.389Z,92.68
2023-01-04T02:54:08.010Z,92.70
2023-01-04T02:57:32.381Z,92.66
2023-01-04T03:00:44.970Z,92.62
2023-01-04T03:03:39.519Z,92.73
2023-01-04T03:06:21.587Z,92.86
2023-01-04T03:09:03.533Z,92.85
2023-01-04T03:11:56.642Z,92.85
2023-01-04T03:14:31.715Z,92.88
2023-01-04T03:17:01.603Z,92.86
2023-01-04T03:19:49.849Z,92.81
2023-01-04T03:22:41.195Z,92.81
2023-01-04T03:25:27.704Z,92.85
2023-01-04T03:28:15.582Z,92.86
2023-01-04T03:31:19.116Z,92.84
2023-01-04T03:34:05.381Z,92.77
2023-01-04T03:36:44.900Z,92.75
2023-01-04T03:39:48.532Z,92.72
2023-01-04T03:42:56.465Z,92.70
2023-01-04T03:45:47.775Z,92.68
2023-01-04T03:48:31.005Z,92.78
2023-01-04T03:51:15.416Z,92.68
2023-01-04T03:53:57.341Z,92.74
2023-01-04T03:56:28.164Z,92.78
2023-01-04T03:58:56.041Z,92.81
2023-01-04T04:01:26.201Z,92.96
2023-01-04T04:04:13.358Z,92.97
2023-01-04T04:06:59.851Z,92.96
2023-01-04T04:09:27.684Z,92.81
2023-01-04T04:11:55.673Z,92.77
2023-01-04T04:14:23.728Z,92.62
2023-01-04T04:16:51.724Z,92.66
2023-01-04T04:19:19.800Z,92.69
2023-01-04T04:21:47.554Z,92.88
2023-01-04T04:24:22.639Z,92.92
2023-01-04T04:26:51.762Z,92.98
2023-01-04T04:29:19.689Z,92.97
2023-01-04T04:31:47.654Z,93.08
2023-01-04T04:34:15.487Z,93.16
2023-01-04T04:36:43.326Z,93.19
2023-01-04T04:39:11.994Z,93.17
2023-01-04T04:41:43.255Z,93.11
2023-01-04T04:44:15.977Z,93.23
2023-01-04T04:46:44.802Z,93.24
2023-01-04T04:49:16.053Z,93.25
2023-01-04T04:51:45.170Z,93.18
2023-01-04T04:54:17.017Z,93.19
2023-01-04T04:56:44.831Z,93.21
2023-01-04T04:59:12.618Z,93.09
2023-01-04T05:01:40.715Z,93.11
2023-01-04T05:04:08.815Z,93.13
2023-01-04T05:06:36.458Z,93.12
2023-01-04T05:09:04.249Z,93.14
2023-01-04T05:11:50.330Z,93.15
2023-01-04T05:14:18.456Z,93.19
2023-01-04T05:16:46.374Z,93.16
2023-01-04T05:19:14.083Z,93.17
2023-01-04T05:21:41.895Z,93.08
2023-01-04T05:24:12.149Z,93.04
2023-01-04T05:26:40.154Z,93.14
2023-01-04T05:29:09.636Z,93.18
2023-01-04T05:31:38.102Z,93.28
2023-01-04T05:34:05.866Z,93.32
2023-01-04T05:36:33.577Z,93.38
2023-01-04T05:39:01.460Z,93.40
2023-01-04T05:41:47.391Z,93.31
2023-01-04T05:44:15.377Z,93.35
2023-01-04T05:46:43.123Z,93.36
2023-01-04T05:49:11.133Z,93.23
2023-01-04T05:51:38.939Z,93.31
2023-01-04T05:54:06.483Z,93.35
2023-01-04T05:56:34.229Z,93.44
2023-01-04T05:59:02.093Z,93.44
2023-01-04T06:01:29.957Z,93.39
2023-01-04T06:03:57.900Z,93.35
2023-01-04T06:06:25.712Z,93.40
2023-01-04T06:08:53.454Z,93.44
2023-01-04T06:11:27.192Z,93.45
2023-01-04T06:13:50.952Z,93.43
2023-01-04T06:16:19.196Z,93.45
2023-01-04T06:18:47.006Z,93.42
2023-01-04T06:21:14.951Z,93.51
2023-01-04T06:23:42.486Z,93.53
2023-01-04T06:26:10.215Z,93.56
2023-01-04T06:28:41.001Z,93.59
2023-01-04T06:31:09.544Z,93.57
2023-01-04T06:33:37.647Z,93.50
2023-01-04T06:36:06.340Z,93.42
2023-01-04T06:38:34.393Z,93.50
2023-01-04T06:41:02.143Z,93.53
2023-01-04T06:43:30.061Z,93.49
2023-01-04T06:45:58.128Z,93.63
2023-01-04T06:48:25.961Z,93.66
2023-01-04T06:50:53.604Z,93.78
2023-01-04T06:53:21.570Z,93.80
2023-01-04T06:55:49.367Z,93.79
2023-01-04T06:58:17.354Z,94.02
2023-01-04T07:00:46.637Z,94.14
2023-01-04T07:03:16.196Z,94.19
2023-01-04T07:05:44.597Z,94.28
2023-01-04T07:08:14.814Z,94.42
2023-01-04T07:10:42.665Z,94.42
2023-01-04T07:13:10.900Z,94.38
2023-01-04T07:15:41.022Z,94.40
2023-01-04T07:18:10.610Z,94.58
2023-01-04T07:20:39.082Z,94.69
2023-01-04T07:23:07.977Z,94.84
2023-01-04T07:25:35.952Z,94.89
2023-01-04T07:28:04.176Z,94.96
2023-01-04T07:30:32.161Z,94.91
2023-01-04T07:33:00.242Z,94.99
2023-01-04T07:35:28.602Z,94.94
2023-01-04T07:37:58.915Z,94.96
2023-01-04T07:40:27.399Z,94.92
2023-01-04T07:42:57.550Z,94.86
2023-01-04T07:45:25.769Z,94.86
2023-01-04T07:47:53.354Z,94.90
2023-01-04T07:50:21.195Z,94.92
2023-01-04T07:52:48.823Z,94.83
2023-01-04T07:55:16.818Z,94.78
2023-01-04T07:57:44.724Z,94.70
2023-01-04T08:00:13.457Z,94.85
2023-01-04T08:02:42.687Z,94.98
2023-01-04T08:05:10.925Z,95.11
2023-01-04T08:07:38.885Z,95.11
2023-01-04T08:10:08.282Z,95.15
2023-01-04T08:12:36.159Z,95.19
2023-01-04T08:15:04.722Z,95.21
2023-01-04T08:17:33.607Z,95.15
2023-01-04T08:20:03.667Z,95.08
2023-01-04T08:22:35.061Z,95.13
2023-01-04T08:25:02.957Z,95.14
2023-01-04T08:27:31.025Z,95.26
2023-01-04T08:29:59.201Z,95.13
2023-01-04T08:32:27.555Z,95.27
2023-01-04T08:34:57.343Z,95.33
2023-01-04T08:37:25.182Z,95.40
2023-01-04T08:39:52.956Z,95.30
2023-01-04T08:42:28.638Z,95.32
2023-01-04T08:44:52.969Z,95.61
2023-01-04T08:47:19.998Z,95.75
2023-01-04T08:49:48.105Z,95.77
2023-01-04T08:52:15.938Z,95.77
2023-01-04T08:54:43.957Z,95.85
2023-01-04T08:57:11.669Z,95.79
2023-01-04T08:59:41.512Z,95.79
2023-01-04T09:02:27.496Z,95.86
2023-01-04T09:04:58.233Z,95.95
2023-01-04T09:07:31.592Z,95.98
2023-01-04T09:10:03.082Z,96.01
2023-01-04T09:12:31.326Z,96.09
2023-01-04T09:15:09.578Z,95.97
2023-01-04T09:17:58.006Z,96.01
2023-01-04T09:20:11.857Z,96.04
2023-01-04T09:22:50.117Z,95.81
2023-01-04T09:25:26.330Z,95.65
2023-01-04T09:27:55.078Z,95.14
2023-01-04T09:30:23.238Z,95.12
2023-01-04T09:32:51.574Z,95.14
2023-01-04T09:35:19.763Z,94.99
2023-01-04T09:37:54.951Z,95.10
2023-01-04T09:40:26.563Z,95.36
2023-01-04T09:43:20.623Z,95.65
2023-01-04T09:45:30.398Z,95.70
2023-01-04T09:48:11.348Z,95.63
2023-01-04T09:50:50.289Z,95.76
2023-01-04T09:53:30.091Z,95.51
2023-01-04T09:56:12.466Z,95.57
2023-01-04T09:58:48.904Z,95.64
2023-01-04T10:01:52.052Z,95.68
2023-01-04T10:04:47.805Z,95.55
2023-01-04T10:07:33.884Z,95.35
2023-01-04T10:10:06.359Z,94.83
2023-01-04T10:13:03.923Z,95.03
2023-01-04T10:19:23.922Z,95.32
2023-01-04T10:22:00.075Z,95.31
2023-01-04T12:46:07.046Z,81.59
2023-01-04T12:52:42.584Z,80.57
2023-01-04T13:17:28.866Z,79.50
2023-01-04T13:30:29.490Z,81.13
2023-01-04T13:36:42.246Z,81.12
2023-01-04T14:12:11.063Z,82.06
2023-01-04T14:15:08.434Z,82.26
2023-01-04T14:17:56.657Z,82.34
2023-01-04T14:20:38.409Z,82.50
2023-01-04T14:23:17.622Z,82.69
2023-01-04T14:25:52.826Z,82.89
2023-01-04T14:28:28.390Z,83.04
2023-01-04T14:31:06.333Z,83.15
2023-01-04T14:33:39.711Z,83.18
2023-01-04T14:36:26.169Z,83.22
2023-01-04T14:39:09.565Z,83.37
2023-01-04T14:41:45.488Z,83.61
2023-01-04T14:44:17.144Z,83.72
2023-01-04T14:46:48.524Z,83.86
2023-01-04T14:49:16.740Z,84.04
2023-01-04T14:51:54.718Z,84.10
2023-01-04T14:54:25.589Z,84.19
2023-01-04T14:56:56.335Z,84.29
2023-01-04T14:59:24.745Z,84.33
2023-01-04T15:01:57.164Z,84.44
2023-01-04T15:04:26.540Z,84.57
2023-01-04T15:06:58.621Z,84.76
2023-01-04T15:09:28.354Z,84.88
2023-01-04T15:11:56.588Z,85.00
2023-01-04T15:14:24.734Z,85.02
2023-01-04T15:16:52.695Z,85.19
2023-01-04T15:19:20.455Z,85.30
2023-01-04T15:21:52.411Z,85.42
2023-01-04T15:24:20.157Z,85.56
2023-01-04T15:26:48.653Z,85.63
2023-01-04T15:29:16.596Z,85.77
2023-01-04T15:31:44.777Z,85.91
2023-01-04T15:34:14.179Z,85.99
2023-01-04T15:36:44.255Z,86.01
2023-01-04T15:39:14.218Z,86.06
2023-01-04T15:42:00.623Z,86.16
2023-01-04T15:44:28.416Z,86.22
2023-01-04T15:46:58.145Z,86.31
2023-01-04T15:49:26.106Z,86.38
2023-01-04T15:51:54.017Z,86.43
2023-01-04T15:54:27.483Z,86.45
2023-01-04T15:56:55.930Z,86.48
2023-01-04T15:59:23.933Z,86.49
2023-01-04T16:01:51.971Z,86.44
2023-01-04T16:04:19.852Z,86.45
2023-01-04T16:06:48.003Z,86.37
2023-01-04T16:09:16.158Z,86.34
2023-01-04T16:11:49.156Z,86.33
2023-01-04T16:14:17.216Z,86.37
2023-01-04T16:16:45.228Z,86.43
2023-01-04T16:19:13.007Z,86.45
2023-01-04T16:21:41.989Z,86.47
2023-01-04T16:24:29.561Z,86.47
2023-01-04T16:26:42.070Z,86.53
2023-01-04T16:29:11.804Z,86.56
2023-01-04T16:31:40.000Z,86.53
2023-01-04T16:34:11.275Z,86.56
2023-01-04T16:36:39.337Z,86.63
2023-01-04T16:39:08.165Z,86.61
2023-01-04T16:41:40.209Z,86.63
2023-01-04T16:44:09.735Z,86.72
2023-01-04T16:46:39.412Z,86.76
2023-01-04T16:49:11.252Z,86.76
2023-01-04T16:51:45.045Z,86.82
2023-01-04T16:54:16.583Z,86.95
2023-01-04T16:56:50.972Z,86.99
2023-01-04T16:59:19.648Z,87.02
2023-01-04T17:01:57.713Z,87.02
2023-01-04T17:04:21.286Z,87.09
2023-01-04T17:06:51.670Z,87.17
2023-01-04T17:09:21.763Z,87.29
2023-01-04T17:14:32.900Z,87.48
2023-01-04T17:17:02.372Z,87.49
2023-01-04T17:19:30.892Z,87.51
2023-01-04T17:21:59.406Z,87.68
2023-01-04T17:24:27.518Z,87.76
2023-01-04T17:26:55.591Z,87.98
2023-01-04T17:29:23.664Z,88.10
2023-01-04T17:31:53.045Z,88.23
2023-01-04T17:34:23.221Z,88.35
2023-01-04T17:36:51.336Z,88.35
2023-01-04T17:39:20.460Z,88.48
2023-01-04T17:41:48.358Z,88.38
2023-01-04T17:44:16.323Z,88.58
2023-01-04T17:46:47.934Z,88.74
2023-01-04T17:49:27.543Z,88.82
2023-01-04T17:51:45.577Z,88.88
2023-01-04T17:54:13.999Z,89.01
2023-01-04T17:56:41.944Z,89.03
2023-01-04T17:59:12.508Z,88.94
2023-01-04T18:01:44.074Z,89.07
2023-01-04T18:04:12.158Z,89.20
2023-01-04T18:06:40.092Z,89.27
2023-01-04T18:09:08.679Z,89.33
2023-01-04T18:11:39.176Z,89.34
2023-01-04T18:14:10.251Z,89.44
2023-01-04T18:16:40.261Z,89.49
2023-01-04T18:19:08.501Z,89.56
2023-01-04T18:21:36.404Z,89.53
2023-01-04T18:27:10.736Z,89.37
2023-01-04T18:29:08.066Z,89.42
2023-01-04T18:31:35.789Z,89.41
2023-01-04T18:34:05.609Z,89.38
2023-01-04T18:36:42.468Z,89.43
2023-01-04T18:39:06.605Z,89.46
2023-01-04T18:41:35.623Z,89.48
2023-01-04T18:44:31.341Z,89.61
2023-01-04T18:46:32.981Z,89.71
2023-01-04T18:49:02.697Z,89.74
2023-01-04T18:51:30.277Z,89.97
2023-01-04T18:53:58.071Z,90.14
2023-01-04T18:56:28.757Z,90.17
2023-01-04T18:58:57.552Z,90.29
2023-01-04T19:01:27.893Z,90.43
2023-01-04T19:03:56.698Z,90.54
2023-01-04T19:06:24.753Z,90.52
2023-01-04T19:09:01.462Z,90.70
2023-01-04T19:11:26.352Z,90.84
2023-01-04T19:13:54.724Z,90.89
2023-01-04T19:16:23.443Z,90.88
2023-01-04T19:18:51.110Z,90.99
2023-01-04T19:21:19.146Z,91.02
2023-01-04T19:23:47.471Z,91.16
2023-01-04T19:26:15.128Z,91.20
2023-01-04T19:28:43.017Z,91.25
2023-01-04T19:31:12.462Z,91.33
2023-01-04T19:33:41.041Z,91.33
2023-01-04T19:36:11.265Z,91.39
2023-01-04T19:38:41.374Z,91.46
2023-01-04T19:41:14.553Z,91.37
2023-01-04T19:43:42.598Z,91.31
2023-01-04T19:46:14.121Z,91.54
2023-01-04T19:48:44.884Z,91.53
2023-01-04T19:51:18.480Z,91.51
2023-01-04T19:53:46.453Z,91.46
2023-01-04T19:56:16.313Z,91.34
2023-01-04T19:58:44.452Z,91.33
2023-01-04T20:01:16.756Z,91.19
2023-01-04T20:03:44.931Z,91.14
2023-01-04T20:06:14.707Z,91.01
2023-01-04T20:08:45.197Z,91.07
2023-01-04T20:11:13.424Z,91.06
2023-01-04T20:13:41.191Z,91.11
2023-01-04T20:16:10.977Z,91.19
2023-01-04T20:18:39.073Z,91.19
2023-01-04T20:21:12.548Z,91.19
2023-01-04T20:23:43.204Z,91.34
2023-01-04T20:26:15.415Z,91.44
2023-01-04T20:28:45.368Z,91.49
2023-01-04T20:31:16.800Z,91.47
2023-01-04T20:33:46.537Z,91.47
2023-01-04T20:36:19.060Z,91.58
2023-01-04T20:38:48.035Z,91.57
2023-01-04T20:41:19.974Z,91.63
2023-01-04T20:43:48.590Z,91.68
2023-01-04T20:46:30.613Z,91.69
2023-01-04T20:49:00.713Z,91.73
2023-01-04T20:51:30.467Z,91.84
2023-01-04T20:53:59.407Z,91.92
2023-01-04T20:56:30.915Z,91.76
2023-01-04T20:58:58.850Z,91.89
2023-01-04T21:01:27.014Z,92.03
2023-01-04T21:03:54.961Z,91.99
2023-01-04T21:06:23.386Z,91.98
2023-01-04T21:08:54.235Z,92.06
2023-01-04T21:11:22.247Z,92.04
2023-01-04T21:13:51.491Z,91.92
2023-01-04T21:16:19.200Z,91.92
2023-01-04T21:18:47.447Z,92.03
2023-01-04T21:21:17.593Z,91.98
2023-01-04T21:23:49.502Z,92.04
2023-01-04T21:26:20.511Z,92.05
2023-01-04T21:28:48.167Z,92.03
2023-01-04T21:31:19.692Z,91.98
2023-01-04T21:33:48.093Z,92.08
2023-01-04T21:36:27.618Z,92.03
2023-01-04T21:38:58.303Z,92.00
2023-01-04T21:41:26.664Z,92.09
2023-01-04T21:43:57.288Z,92.01
2023-01-04T21:46:26.573Z,92.03
2023-01-04T21:48:57.707Z,92.10
2023-01-04T21:51:29.471Z,92.03
2023-01-04T21:53:58.251Z,92.11
2023-01-04T21:56:26.206Z,92.08
2023-01-04T21:58:53.979Z,91.92
2023-01-04T22:01:31.002Z,91.91
2023-01-04T22:03:56.388Z,91.94
2023-01-04T22:06:25.448Z,92.06
2023-01-04T22:08:55.090Z,92.10
2023-01-04T22:11:22.928Z,92.01
2023-01-04T22:13:51.061Z,91.99
2023-01-04T22:16:18.813Z,91.95
2023-01-04T22:18:50.883Z,91.96
2023-01-04T22:21:22.854Z,91.99
2023-01-04T22:23:51.839Z,91.97
2023-01-04T22:26:19.598Z,91.95
2023-01-04T22:28:47.377Z,92.05
2023-01-04T22:31:15.616Z,92.06
2023-01-04T22:33:43.480Z,92.04
2023-01-04T22:36:21.729Z,92.11
2023-01-04T22:38:45.896Z,92.13
2023-01-04T22:41:16.404Z,92.06
2023-01-04T22:43:44.910Z,92.03
2023-01-04T22:46:17.157Z,92.03
2023-01-04T22:48:45.865Z,92.07
2023-01-04T22:51:16.842Z,92.13
2023-01-04T22:53:45.300Z,92.13
2023-01-04T22:56:19.493Z,92.25
2023-01-04T22:58:52.094Z,92.28
2023-01-04T23:01:15.710Z,92.30
2023-01-04T23:03:43.634Z,92.23
2023-01-04T23:06:13.026Z,92.31
2023-01-04T23:08:41.261Z,92.34
2023-01-04T23:11:16.505Z,92.31
2023-01-04T23:13:44.037Z,92.26
2023-01-04T23:16:15.657Z,92.33
2023-01-04T23:18:43.634Z,92.43
2023-01-04T23:21:12.624Z,92.46
2023-01-04T23:23:40.469Z,92.45
2023-01-04T23:26:21.193Z,92.51
2023-01-04T23:28:49.870Z,92.60
2023-01-04T23:31:22.042Z,92.59
2023-01-04T23:33:55.555Z,92.67
2023-01-04T23:36:28.053Z,92.67
2023-01-04T23:38:58.831Z,92.80
2023-01-04T23:41:45.857Z,92.90
2023-01-04T23:47:01.237Z,93.08
2023-01-04T23:49:31.693Z,93.20
2023-01-04T23:52:00.145Z,93.17
2023-01-04T23:54:29.064Z,93.07
2023-01-04T23:56:57.376Z,93.08
2023-01-04T23:59:25.422Z,93.13
